createdAt,value
2022-12-24T00:01:06.372Z,88.85
2022-12-24T00:03:34.555Z,84.10
2022-12-24T00:06:06.829Z,87.43
2022-12-24T00:08:34.491Z,80.80
2022-12-24T00:11:01.994Z,66.95
2022-12-24T00:13:29.672Z,61.83
2022-12-24T00:15:56.803Z,63.35
2022-12-24T00:18:24.270Z,63.63
2022-12-24T00:20:51.980Z,66.72
2022-12-24T00:23:19.943Z,64.55
2022-12-24T00:25:47.654Z,66.18
2022-12-24T00:28:16.922Z,73.72
2022-12-24T00:30:44.525Z,92.85
2022-12-24T00:33:12.157Z,103.18
2022-12-24T00:35:40.531Z,89.63
2022-12-24T00:38:08.924Z,77.70
2022-12-24T00:40:36.229Z,88.45
2022-12-24T00:43:03.872Z,91.82
2022-12-24T00:45:31.061Z,74.78
2022-12-24T00:47:58.534Z,62.00
2022-12-24T00:50:25.702Z,46.72
2022-12-24T00:52:53.198Z,43.03
2022-12-24T00:55:20.390Z,50.95
2022-12-24T00:57:47.965Z,33.33
2022-12-24T01:00:17.666Z,31.10
2022-12-24T01:02:45.358Z,29.90
2022-12-24T01:05:13.265Z,32.95
2022-12-24T01:07:44.466Z,30.83
2022-12-24T01:10:14.660Z,28.58
2022-12-24T01:12:43.133Z,28.33
2022-12-24T01:15:11.967Z,23.30
2022-12-24T01:17:40.404Z,29.65
2022-12-24T01:20:18.278Z,29.67
2022-12-24T01:22:46.067Z,29.23
2022-12-24T01:25:13.403Z,34.38
2022-12-24T01:27:41.103Z,39.97
2022-12-24T01:30:10.223Z,42.95
2022-12-24T01:32:37.785Z,33.50
2022-12-24T01:35:05.919Z,35.20
2022-12-24T01:37:33.420Z,54.75
2022-12-24T01:40:18.840Z,30.75
2022-12-24T01:43:07.732Z,30.40
2022-12-24T01:45:41.267Z,37.60
2022-12-24T01:48:24.854Z,32.92
2022-12-24T01:50:57.962Z,30.17
2022-12-24T01:53:26.036Z,35.72
2022-12-24T01:55:54.115Z,36.53
2022-12-24T01:58:24.848Z,36.60
2022-12-24T02:00:52.070Z,38.10
2022-12-24T02:03:20.226Z,42.13
2022-12-24T02:05:51.525Z,31.60
2022-12-24T02:08:19.702Z,31.00
2022-12-24T02:10:48.515Z,28.40
2022-12-24T02:13:19.456Z,30.75
2022-12-24T02:15:52.518Z,30.67
2022-12-24T02:18:58.522Z,26.25
2022-12-24T02:21:40.853Z,29.33
2022-12-24T02:24:27.198Z,28.98
2022-12-24T02:27:15.407Z,25.60
2022-12-24T02:30:04.289Z,24.60
2022-12-24T02:32:53.334Z,23.13
2022-12-24T02:35:24.651Z,26.65
2022-12-24T02:38:13.405Z,30.98
2022-12-24T02:40:51.529Z,38.80
2022-12-24T02:43:23.585Z,35.28
2022-12-24T02:45:59.008Z,23.70
2022-12-24T02:48:29.327Z,30.92
2022-12-24T02:51:07.092Z,21.02
2022-12-24T02:53:35.835Z,26.88
2022-12-24T02:56:58.959Z,27.63
2022-12-24T02:59:59.950Z,23.60
2022-12-24T03:02:30.243Z,20.70
2022-12-24T03:05:19.126Z,26.75
2022-12-24T03:08:07.544Z,27.42
2022-12-24T03:10:46.494Z,26.23
2022-12-24T03:13:18.625Z,25.15
2022-12-24T03:15:47.461Z,23.13
2022-12-24T03:18:22.832Z,22.80
2022-12-24T03:21:00.866Z,21.67
2022-12-24T03:23:28.626Z,27.85
2022-12-24T03:25:56.039Z,27.90
2022-12-24T03:28:27.884Z,27.33
2022-12-24T03:30:55.762Z,31.65
2022-12-24T03:33:23.305Z,35.35
2022-12-24T03:35:50.515Z,57.22
2022-12-24T03:38:18.037Z,52.10
2022-12-24T03:40:45.363Z,50.25
2022-12-24T03:43:13.228Z,50.75
2022-12-24T03:45:40.727Z,55.35
2022-12-24T03:48:08.377Z,47.10
2022-12-24T03:50:35.536Z,52.88
2022-12-24T03:53:03.157Z,53.28
2022-12-24T03:55:30.541Z,58.00
2022-12-24T03:57:58.042Z,59.38
2022-12-24T04:00:25.274Z,65.45
2022-12-24T04:02:54.539Z,56.30
2022-12-24T04:05:22.219Z,57.92
2022-12-24T04:07:49.907Z,63.00
2022-12-24T04:10:17.478Z,58.70
2022-12-24T04:12:44.954Z,45.00
2022-12-24T04:15:12.495Z,43.60
2022-12-24T04:17:39.922Z,44.38
2022-12-24T04:20:07.805Z,29.48
2022-12-24T04:22:35.227Z,14.68
2022-12-24T04:25:02.408Z,7.22
2022-12-24T04:27:31.385Z,6.55
2022-12-24T04:29:59.010Z,4.30
2022-12-24T04:32:27.396Z,5.10
2022-12-24T04:34:54.642Z,4.47
2022-12-24T04:37:22.149Z,4.78
2022-12-24T04:39:49.312Z,4.55
2022-12-24T04:42:16.743Z,4.53
2022-12-24T04:44:43.923Z,3.78
2022-12-24T04:47:11.361Z,3.17
2022-12-24T04:49:38.620Z,3.50
2022-12-24T04:52:06.381Z,2.97
2022-12-24T04:54:33.584Z,2.85
2022-12-24T04:57:01.196Z,2.70
2022-12-24T04:59:28.359Z,3.10
2022-12-24T05:01:55.953Z,2.70
2022-12-24T05:04:23.302Z,2.42
2022-12-24T05:06:50.764Z,2.10
2022-12-24T05:09:17.872Z,2.08
2022-12-24T05:11:45.320Z,2.42
2022-12-24T05:14:12.544Z,2.40
2022-12-24T05:16:40.256Z,2.05
2022-12-24T05:19:07.455Z,2.50
2022-12-24T05:21:35.184Z,2.60
2022-12-24T05:24:21.068Z,2.58
2022-12-24T05:26:57.670Z,2.38
2022-12-24T05:29:25.113Z,2.50
2022-12-24T05:31:52.602Z,3.03
2022-12-24T05:34:19.809Z,2.65
2022-12-24T05:36:47.293Z,2.25
2022-12-24T05:39:18.841Z,3.92
2022-12-24T05:41:46.980Z,3.53
2022-12-24T05:44:15.054Z,3.20
2022-12-24T05:46:43.196Z,2.67
2022-12-24T05:49:10.735Z,3.00
2022-12-24T05:51:40.568Z,2.78
2022-12-24T05:54:08.538Z,3.25
2022-12-24T05:56:36.111Z,3.17
2022-12-24T05:59:03.308Z,3.47
2022-12-24T06:01:30.904Z,4.38
2022-12-24T06:03:58.366Z,5.07
2022-12-24T06:06:28.161Z,5.88
2022-12-24T06:08:55.927Z,5.65
2022-12-24T06:11:26.198Z,5.57
2022-12-24T06:13:54.375Z,5.18
2022-12-24T06:16:23.420Z,6.18
2022-12-24T06:18:50.968Z,5.72
2022-12-24T06:21:19.872Z,6.05
2022-12-24T06:23:47.748Z,6.18
2022-12-24T06:26:18.328Z,6.57
2022-12-24T06:28:48.059Z,7.07
2022-12-24T06:31:18.409Z,8.15
2022-12-24T06:33:45.953Z,8.27
2022-12-24T06:36:19.776Z,8.68
2022-12-24T06:38:48.155Z,9.65
2022-12-24T06:41:17.008Z,8.38
2022-12-24T06:43:49.225Z,10.45
2022-12-24T06:46:17.803Z,11.13
2022-12-24T06:48:45.989Z,12.48
2022-12-24T06:51:15.250Z,11.00
2022-12-24T06:53:42.413Z,11.98
2022-12-24T06:56:12.563Z,11.02
2022-12-24T06:58:40.962Z,10.50
2022-12-24T07:01:11.673Z,10.10
2022-12-24T07:03:39.504Z,10.02
2022-12-24T07:06:16.347Z,10.23
2022-12-24T07:08:43.697Z,10.38
2022-12-24T07:11:11.236Z,10.07
2022-12-24T07:13:38.611Z,11.13
2022-12-24T07:16:06.433Z,11.60
2022-12-24T07:18:33.828Z,11.25
2022-12-24T07:21:04.717Z,13.00
2022-12-24T07:23:32.006Z,14.05
2022-12-24T07:26:04.615Z,17.65
2022-12-24T07:28:32.090Z,21.45
2022-12-24T07:31:00.408Z,42.70
2022-12-24T07:33:27.728Z,46.13
2022-12-24T07:36:01.905Z,30.58
2022-12-24T07:38:30.038Z,33.70
2022-12-24T07:40:58.207Z,36.33
2022-12-24T07:43:26.858Z,31.80
2022-12-24T07:45:58.222Z,36.97
2022-12-24T07:48:28.509Z,37.70
2022-12-24T07:50:57.390Z,33.67
2022-12-24T07:53:26.025Z,36.50
2022-12-24T07:55:53.801Z,30.02
2022-12-24T07:58:21.604Z,21.20
2022-12-24T08:00:49.439Z,19.92
2022-12-24T08:03:20.887Z,19.85
2022-12-24T08:05:49.492Z,18.55
2022-12-24T08:08:16.653Z,18.50
2022-12-24T08:10:45.903Z,20.80
2022-12-24T08:13:14.142Z,20.85
2022-12-24T08:15:42.121Z,21.27
2022-12-24T08:18:09.972Z,17.80
2022-12-24T08:20:41.044Z,20.13
2022-12-24T08:23:09.180Z,30.42
2022-12-24T08:25:37.188Z,23.77
2022-12-24T08:28:05.800Z,21.42
2022-12-24T08:30:33.935Z,20.08
2022-12-24T08:33:01.133Z,21.52
2022-12-24T08:35:28.833Z,22.33
2022-12-24T08:37:56.440Z,17.40
2022-12-24T08:40:24.006Z,14.68
2022-12-24T08:42:51.395Z,12.43
2022-12-24T08:45:19.709Z,11.15
2022-12-24T08:47:47.055Z,10.40
2022-12-24T08:50:14.828Z,10.50
2022-12-24T08:52:42.205Z,16.25
2022-12-24T08:55:09.981Z,14.68
2022-12-24T08:57:38.083Z,19.02
2022-12-24T09:00:07.399Z,16.42
2022-12-24T09:02:34.923Z,16.38
2022-12-24T09:05:02.846Z,8.48
2022-12-24T09:07:30.279Z,6.80
2022-12-24T09:09:57.855Z,7.32
2022-12-24T09:12:25.109Z,7.50
2022-12-24T09:14:59.601Z,8.25
2022-12-24T09:17:30.482Z,8.02
2022-12-24T09:19:58.159Z,6.88
2022-12-24T09:22:25.735Z,6.18
2022-12-24T09:24:56.392Z,7.82
2022-12-24T09:27:23.699Z,9.50
2022-12-24T09:29:51.247Z,7.45
2022-12-24T09:32:18.523Z,6.55
2022-12-24T09:34:46.237Z,8.13
2022-12-24T09:37:13.560Z,6.25
2022-12-24T09:39:41.099Z,5.97
2022-12-24T09:42:26.248Z,6.60
2022-12-24T09:45:05.844Z,6.70
2022-12-24T09:47:41.540Z,6.97
2022-12-24T09:53:04.301Z,9.20
2022-12-24T09:55:42.525Z,9.45
2022-12-24T09:58:20.631Z,8.63
2022-12-24T10:00:50.307Z,8.30
2022-12-24T10:03:18.496Z,6.85
2022-12-24T10:06:09.799Z,6.45
2022-12-24T10:08:39.920Z,6.10
2022-12-24T10:11:11.957Z,8.40
2022-12-24T10:14:22.644Z,8.40
2022-12-24T10:17:01.948Z,7.28
2022-12-24T10:19:43.283Z,6.97
2022-12-24T10:22:23.409Z,7.72
2022-12-24T10:25:17.013Z,8.57
2022-12-24T10:27:46.104Z,7.25
2022-12-24T10:30:17.456Z,4.57
2022-12-24T10:32:48.076Z,5.35
2022-12-24T10:35:17.422Z,5.68
2022-12-24T10:37:47.898Z,5.00
2022-12-24T10:40:35.346Z,5.57
2022-12-24T10:43:09.227Z,8.93
2022-12-24T10:45:44.543Z,6.68
2022-12-24T10:48:20.581Z,6.20
2022-12-24T10:51:06.121Z,6.65
2022-12-24T10:53:45.460Z,8.80
2022-12-24T10:56:15.718Z,8.15
2022-12-24T10:58:45.786Z,8.77
2022-12-24T11:01:14.379Z,9.10
2022-12-24T11:03:42.783Z,8.95
2022-12-24T11:06:14.151Z,8.05
2022-12-24T11:08:45.568Z,8.00
2022-12-24T11:11:21.021Z,10.23
2022-12-24T11:13:51.615Z,10.15
2022-12-24T11:16:32.616Z,9.25
2022-12-24T11:19:04.570Z,9.32
2022-12-24T11:21:34.709Z,16.98
2022-12-24T11:24:21.214Z,21.00
2022-12-24T11:26:48.530Z,12.95
2022-12-24T11:29:27.854Z,11.93
2022-12-24T11:32:22.452Z,12.93
2022-12-24T11:34:49.993Z,9.60
2022-12-24T11:37:22.049Z,5.40
2022-12-24T11:39:55.496Z,6.22
2022-12-24T11:42:41.054Z,6.75
2022-12-24T11:45:30.226Z,7.15
2022-12-24T11:47:58.619Z,8.43
2022-12-24T11:50:32.049Z,9.02
2022-12-24T11:53:04.827Z,7.80
2022-12-24T11:55:53.917Z,8.40
2022-12-24T11:58:46.315Z,10.00
2022-12-24T12:01:28.232Z,8.35
2022-12-24T12:04:01.031Z,7.50
2022-12-24T12:06:40.296Z,8.70
2022-12-24T12:09:14.402Z,8.85
2022-12-24T12:11:45.288Z,12.30
2022-12-24T12:14:21.802Z,11.20
2022-12-24T12:17:31.148Z,13.00
2022-12-24T12:20:11.388Z,13.43
2022-12-24T12:22:57.657Z,13.80
2022-12-24T12:26:04.776Z,11.05
2022-12-24T12:28:55.155Z,13.20
2022-12-24T12:31:30.451Z,10.60
2022-12-24T12:34:24.789Z,11.52
2022-12-24T12:37:15.271Z,10.75
2022-12-24T12:39:43.446Z,8.55
2022-12-24T12:42:31.957Z,10.13
2022-12-24T12:45:37.108Z,18.23
2022-12-24T12:48:17.416Z,19.55
2022-12-24T12:50:45.049Z,26.20
2022-12-24T12:53:30.236Z,17.70
2022-12-24T12:56:24.109Z,12.10
2022-12-24T12:58:58.941Z,12.35
2022-12-24T13:01:40.392Z,10.37
2022-12-24T13:05:00.640Z,7.47
2022-12-24T13:08:07.484Z,13.82
2022-12-24T13:10:52.120Z,13.13
2022-12-24T13:13:46.439Z,10.32
2022-12-24T13:16:19.352Z,8.60
2022-12-24T13:19:14.625Z,8.60
2022-12-24T13:21:49.068Z,11.52
2022-12-24T13:24:20.170Z,10.07
2022-12-24T13:27:16.245Z,12.77
2022-12-24T13:30:10.214Z,14.90
2022-12-24T13:32:40.808Z,8.55
2022-12-24T13:35:20.400Z,11.45
2022-12-24T13:37:51.832Z,9.77
2022-12-24T13:40:25.430Z,8.52
2022-12-24T13:43:13.342Z,6.70
2022-12-24T13:45:42.926Z,5.35
2022-12-24T13:48:12.110Z,5.57
2022-12-24T13:50:47.128Z,5.82
2022-12-24T13:53:26.240Z,8.02
2022-12-24T13:55:59.774Z,8.13
2022-12-24T13:58:27.189Z,8.00
2022-12-24T14:00:57.806Z,9.68
2022-12-24T14:03:36.377Z,18.23
2022-12-24T14:06:25.489Z,15.85
2022-12-24T14:08:56.722Z,16.55
2022-12-24T14:11:28.365Z,14.18
2022-12-24T14:14:04.485Z,12.75
2022-12-24T14:16:46.415Z,11.57
2022-12-24T14:19:21.649Z,11.75
2022-12-24T14:21:56.817Z,11.82
2022-12-24T14:24:36.343Z,9.10
2022-12-24T14:27:18.845Z,9.20
2022-12-24T14:29:53.751Z,9.00
2022-12-24T14:32:21.992Z,8.87
2022-12-24T14:35:06.740Z,8.98
2022-12-24T14:37:35.341Z,10.88
2022-12-24T14:40:03.128Z,12.75
2022-12-24T14:42:53.595Z,10.25
2022-12-24T14:45:34.753Z,7.18
2022-12-24T14:48:19.826Z,7.57
2022-12-24T14:51:05.374Z,5.75
2022-12-24T14:54:00.793Z,5.88
2022-12-24T14:56:28.048Z,6.15
2022-12-24T14:58:56.880Z,6.53
2022-12-24T15:01:31.970Z,7.30
2022-12-24T15:04:06.037Z,8.00
2022-12-24T15:06:37.248Z,8.48
2022-12-24T15:09:06.195Z,9.18
2022-12-24T15:11:33.496Z,8.55
2022-12-24T15:14:01.143Z,12.25
2022-12-24T15:16:33.079Z,10.80
2022-12-24T15:19:04.919Z,10.88
2022-12-24T15:21:37.770Z,12.38
2022-12-24T15:24:05.815Z,10.43
2022-12-24T15:26:38.085Z,14.43
2022-12-24T15:29:21.096Z,14.23
2022-12-24T15:31:57.044Z,13.52
2022-12-24T15:34:55.256Z,16.45
2022-12-24T15:37:26.456Z,15.40
2022-12-24T15:40:16.924Z,24.63
2022-12-24T15:42:44.632Z,20.67
2022-12-24T15:45:28.688Z,20.25
2022-12-24T15:48:10.252Z,18.60
2022-12-24T15:50:45.271Z,17.27
2022-12-24T15:53:22.048Z,15.73
2022-12-24T15:56:09.399Z,14.65
2022-12-24T15:58:43.104Z,14.23
2022-12-24T16:01:13.582Z,14.05
2022-12-24T16:03:54.598Z,17.17
2022-12-24T16:06:23.513Z,18.60
2022-12-24T16:08:52.100Z,15.20
2022-12-24T16:11:24.290Z,14.82
2022-12-24T16:13:51.495Z,14.23
2022-12-24T16:16:30.880Z,14.60
2022-12-24T16:19:00.211Z,15.80
2022-12-24T16:21:34.325Z,17.02
2022-12-24T16:24:21.997Z,17.92
2022-12-24T16:26:50.208Z,18.88
2022-12-24T16:29:19.504Z,18.13
2022-12-24T16:31:51.114Z,14.13
2022-12-24T16:34:19.339Z,15.13
2022-12-24T16:36:47.293Z,14.40
2022-12-24T16:39:28.622Z,16.02
2022-12-24T16:42:16.353Z,10.85
2022-12-24T16:44:44.598Z,10.50
2022-12-24T16:47:28.716Z,12.88
2022-12-24T16:49:57.443Z,11.82
2022-12-24T16:52:29.120Z,11.68
2022-12-24T16:54:57.477Z,11.15
2022-12-24T16:57:25.175Z,13.45
2022-12-24T16:59:53.326Z,12.32
2022-12-24T17:02:23.327Z,13.18
2022-12-24T17:04:51.087Z,15.85
2022-12-24T17:07:20.570Z,15.23
2022-12-24T17:09:47.738Z,17.10
2022-12-24T17:12:16.267Z,18.48
2022-12-24T17:14:43.631Z,17.17
2022-12-24T17:17:21.848Z,16.95
2022-12-24T17:19:49.077Z,16.50
2022-12-24T17:22:17.225Z,16.05
2022-12-24T17:24:44.596Z,16.15
2022-12-24T17:27:12.225Z,17.50
2022-12-24T17:29:39.728Z,20.90
2022-12-24T17:32:07.309Z,16.65
2022-12-24T17:34:34.943Z,19.65
2022-12-24T17:37:02.757Z,18.60
2022-12-24T17:39:30.072Z,15.10
2022-12-24T17:41:57.576Z,12.55
2022-12-24T17:44:24.910Z,12.63
2022-12-24T17:46:53.985Z,14.23
2022-12-24T17:49:21.460Z,11.48
2022-12-24T17:51:48.968Z,11.73
2022-12-24T17:54:16.379Z,11.45
2022-12-24T17:56:44.047Z,11.27
2022-12-24T17:59:11.232Z,19.52
2022-12-24T18:01:38.765Z,18.48
2022-12-24T18:04:07.402Z,14.02
2022-12-24T18:06:34.990Z,15.43
2022-12-24T18:09:02.366Z,16.85
2022-12-24T18:11:33.487Z,18.65
2022-12-24T18:14:02.360Z,23.70
2022-12-24T18:16:36.513Z,29.20
2022-12-24T18:19:05.768Z,32.22
2022-12-24T18:21:34.187Z,27.08
2022-12-24T18:24:01.687Z,29.70
2022-12-24T18:26:30.868Z,28.17
2022-12-24T18:29:00.424Z,25.02
2022-12-24T18:31:29.948Z,32.67
2022-12-24T18:33:57.582Z,24.90
2022-12-24T18:36:25.309Z,24.65
2022-12-24T18:38:52.811Z,28.42
2022-12-24T18:41:26.773Z,27.05
2022-12-24T18:43:54.876Z,26.42
2022-12-24T18:46:26.861Z,23.73
2022-12-24T18:48:56.016Z,17.17
2022-12-24T18:51:27.026Z,14.02
2022-12-24T18:53:54.344Z,13.50
2022-12-24T18:56:24.298Z,11.57
2022-12-24T18:58:56.797Z,12.73
2022-12-24T19:01:35.548Z,12.30
2022-12-24T19:04:03.470Z,14.57
2022-12-24T19:06:31.178Z,12.48
2022-12-24T19:09:00.281Z,12.77
2022-12-24T19:11:31.361Z,11.38
2022-12-24T19:13:59.176Z,11.63
2022-12-24T19:16:28.810Z,12.23
2022-12-24T19:18:57.113Z,10.55
2022-12-24T19:21:25.204Z,10.25
2022-12-24T19:23:53.218Z,12.40
2022-12-24T19:26:21.389Z,13.25
2022-12-24T19:28:49.222Z,13.82
2022-12-24T19:31:20.722Z,13.50
2022-12-24T19:33:51.056Z,13.18
2022-12-24T19:36:21.666Z,13.95
2022-12-24T19:38:48.991Z,11.52
2022-12-24T19:41:19.703Z,10.50
2022-12-24T19:43:50.169Z,9.52
2022-12-24T19:46:22.840Z,9.45
2022-12-24T19:48:58.912Z,10.52
2022-12-24T19:51:27.743Z,10.25
2022-12-24T19:53:57.110Z,10.05
2022-12-24T19:56:26.612Z,9.48
2022-12-24T19:58:55.257Z,10.73
2022-12-24T20:01:25.375Z,10.05
2022-12-24T20:03:53.745Z,8.82
2022-12-24T20:06:24.762Z,8.35
2022-12-24T20:08:52.294Z,11.20
2022-12-24T20:11:22.439Z,11.00
2022-12-24T20:13:49.750Z,10.27
2022-12-24T20:16:20.783Z,10.38
2022-12-24T20:18:52.966Z,10.73
2022-12-24T20:21:21.364Z,9.85
2022-12-24T20:23:48.934Z,10.55
2022-12-24T20:26:19.294Z,11.43
2022-12-24T20:28:46.774Z,11.07
2022-12-24T20:31:17.407Z,12.85
2022-12-24T20:33:45.533Z,15.15
2022-12-24T20:36:16.154Z,12.88
2022-12-24T20:38:44.555Z,12.98
2022-12-24T20:41:15.056Z,12.57
2022-12-24T20:43:48.329Z,11.65
2022-12-24T20:46:18.136Z,13.15
2022-12-24T20:48:45.856Z,16.55
2022-12-24T20:51:24.291Z,17.45
2022-12-24T20:53:58.391Z,13.27
2022-12-24T20:56:26.905Z,15.02
2022-12-24T20:58:54.199Z,12.00
2022-12-24T21:01:25.161Z,11.15
2022-12-24T21:03:54.431Z,12.07
2022-12-24T21:06:23.427Z,11.43
2022-12-24T21:08:52.167Z,9.68
2022-12-24T21:11:53.609Z,12.40
2022-12-24T21:14:27.378Z,12.75
2022-12-24T21:16:55.731Z,9.48
2022-12-24T21:19:25.489Z,10.48
2022-12-24T21:21:53.629Z,8.55
2022-12-24T21:24:21.032Z,8.30
2022-12-24T21:26:48.692Z,8.95
2022-12-24T21:29:16.023Z,8.02
2022-12-24T21:31:44.153Z,7.70
2022-12-24T21:34:11.445Z,8.57
2022-12-24T21:36:39.228Z,9.43
2022-12-24T21:39:06.519Z,11.70
2022-12-24T21:41:34.327Z,11.45
2022-12-24T21:44:02.345Z,14.38
2022-12-24T21:46:30.178Z,11.77
2022-12-24T21:49:16.069Z,10.85
2022-12-24T21:51:46.278Z,11.52
2022-12-24T21:54:30.778Z,9.30
2022-12-24T21:57:21.011Z,7.95
2022-12-24T21:59:53.099Z,8.45
2022-12-24T22:02:23.253Z,10.55
2022-12-24T22:04:50.975Z,9.85
2022-12-24T22:07:46.050Z,9.18
2022-12-24T22:10:33.419Z,11.85
2022-12-24T22:13:03.845Z,11.35
2022-12-24T22:15:31.267Z,13.05
2022-12-24T22:17:58.997Z,13.15
2022-12-24T22:20:26.852Z,14.48
2022-12-24T22:22:54.580Z,10.43
2022-12-24T22:25:22.106Z,9.15
2022-12-24T22:27:49.264Z,9.23
2022-12-24T22:30:17.161Z,7.40
2022-12-24T22:32:44.645Z,7.70
2022-12-24T22:35:12.667Z,7.45
2022-12-24T22:37:40.228Z,7.78
2022-12-24T22:40:08.791Z,7.93
2022-12-24T22:42:36.121Z,8.68
2022-12-24T22:45:04.812Z,7.13
2022-12-24T22:47:33.033Z,9.10
2022-12-24T22:50:00.880Z,9.40
2022-12-24T22:52:28.337Z,10.90
2022-12-24T22:54:56.031Z,13.00
2022-12-24T22:57:23.197Z,9.27
2022-12-24T22:59:50.842Z,9.80
2022-12-24T23:02:23.978Z,10.07
2022-12-24T23:04:55.408Z,7.32
2022-12-24T23:07:22.719Z,9.10
2022-12-24T23:09:50.293Z,7.50
2022-12-24T23:12:37.433Z,7.82
2022-12-24T23:15:05.450Z,7.65
2022-12-24T23:17:32.679Z,8.52
2022-12-24T23:20:02.289Z,11.55
2022-12-24T23:22:29.532Z,10.52
2022-12-24T23:24:57.106Z,11.30
2022-12-24T23:27:24.645Z,12.38
2022-12-24T23:29:52.399Z,10.35
2022-12-24T23:32:19.581Z,11.93
2022-12-24T23:34:49.358Z,10.50
2022-12-24T23:37:16.660Z,8.85
2022-12-24T23:39:44.740Z,9.88
2022-12-24T23:42:11.967Z,9.38
2022-12-24T23:44:39.589Z,9.02
2022-12-24T23:47:07.158Z,11.52
2022-12-24T23:49:34.881Z,13.60
2022-12-24T23:52:02.279Z,12.20
2022-12-24T23:54:29.834Z,13.65
2022-12-24T23:56:57.117Z,12.85
2022-12-24T23:59:24.611Z,11.63
